sensor_id;sensor_type;location;lat;lon;timestamp;pressure;altitude;pressure_sealevel;temperature;humidity
76229;BME280;65021;53.174;18.160;2023-04-26T00:00:46;100500.80;;;4.57;75.60
76229;BME280;65021;53.174;18.160;2023-04-26T00:03:13;100497.75;;;4.57;75.60
76229;BME280;65021;53.174;18.160;2023-04-26T00:05:40;100499.48;;;4.58;75.63
76229;BME280;65021;53.174;18.160;2023-04-26T00:08:06;100500.33;;;4.57;75.53
76229;BME280;65021;53.174;18.160;2023-04-26T00:10:34;100502.66;;;4.58;75.54
76229;BME280;65021;53.174;18.160;2023-04-26T00:13:04;100499.19;;;4.58;75.65
76229;BME280;65021;53.174;18.160;2023-04-26T00:15:30;100499.39;;;4.58;75.55
76229;BME280;65021;53.174;18.160;2023-04-26T00:17:57;100497.83;;;4.57;75.50
76229;BME280;65021;53.174;18.160;2023-04-26T00:20:24;100500.55;;;4.56;75.72
76229;BME280;65021;53.174;18.160;2023-04-26T00:22:51;100499.59;;;4.53;75.63
76229;BME280;65021;53.174;18.160;2023-04-26T00:25:18;100504.16;;;4.47;75.79
76229;BME280;65021;53.174;18.160;2023-04-26T00:27:45;100503.65;;;4.40;75.74
76229;BME280;65021;53.174;18.160;2023-04-26T00:30:12;100507.26;;;4.32;75.81
76229;BME280;65021;53.174;18.160;2023-04-26T00:32:39;100507.55;;;4.23;75.63
76229;BME280;65021;53.174;18.160;2023-04-26T00:35:06;100504.73;;;4.13;75.81
76229;BME280;65021;53.174;18.160;2023-04-26T00:37:33;100502.13;;;4.03;75.84
76229;BME280;65021;53.174;18.160;2023-04-26T00:40:00;100503.20;;;3.94;75.88
76229;BME280;65021;53.174;18.160;2023-04-26T00:42:26;100500.45;;;3.85;76.15
76229;BME280;65021;53.174;18.160;2023-04-26T00:44:53;100500.23;;;3.74;76.05
76229;BME280;65021;53.174;18.160;2023-04-26T00:47:23;100510.83;;;3.65;76.11
76229;BME280;65021;53.174;18.160;2023-04-26T00:49:51;100507.13;;;3.56;76.21
76229;BME280;65021;53.174;18.160;2023-04-26T00:52:18;100509.23;;;3.49;76.33
76229;BME280;65021;53.174;18.160;2023-04-26T00:54:47;100509.65;;;3.42;76.11
76229;BME280;65021;53.174;18.160;2023-04-26T00:57:14;100512.39;;;3.35;76.31
76229;BME280;65021;53.174;18.160;2023-04-26T00:59:41;100516.28;;;3.29;76.23
76229;BME280;65021;53.174;18.160;2023-04-26T01:02:08;100518.98;;;3.24;76.58
76229;BME280;65021;53.174;18.160;2023-04-26T01:04:34;100522.66;;;3.19;76.48
76229;BME280;65021;53.174;18.160;2023-04-26T01:07:02;100521.92;;;3.13;76.37
76229;BME280;65021;53.174;18.160;2023-04-26T01:09:37;100525.11;;;3.09;76.44
76229;BME280;65021;53.174;18.160;2023-04-26T01:12:04;100523.48;;;3.04;76.42
76229;BME280;65021;53.174;18.160;2023-04-26T01:14:32;100524.51;;;3.00;76.77
76229;BME280;65021;53.174;18.160;2023-04-26T01:17:02;100525.55;;;2.95;76.74
76229;BME280;65021;53.174;18.160;2023-04-26T01:19:31;100523.59;;;2.93;76.94
76229;BME280;65021;53.174;18.160;2023-04-26T01:21:58;100522.21;;;2.89;76.82
76229;BME280;65021;53.174;18.160;2023-04-26T01:24:25;100518.29;;;2.88;76.78
76229;BME280;65021;53.174;18.160;2023-04-26T01:26:51;100520.84;;;2.85;77.00
76229;BME280;65021;53.174;18.160;2023-04-26T01:29:19;100523.48;;;2.81;76.80
76229;BME280;65021;53.174;18.160;2023-04-26T01:31:47;100531.16;;;2.79;76.72
76229;BME280;65021;53.174;18.160;2023-04-26T01:34:14;100530.50;;;2.76;76.93
76229;BME280;65021;53.174;18.160;2023-04-26T01:36:41;100531.74;;;2.73;77.01
76229;BME280;65021;53.174;18.160;2023-04-26T01:39:08;100530.57;;;2.72;77.04
76229;BME280;65021;53.174;18.160;2023-04-26T01:41:34;100527.17;;;2.72;77.24
76229;BME280;65021;53.174;18.160;2023-04-26T01:44:04;100527.70;;;2.73;77.27
76229;BME280;65021;53.174;18.160;2023-04-26T01:46:31;100528.91;;;2.78;77.28
76229;BME280;65021;53.174;18.160;2023-04-26T01:48:58;100531.35;;;2.83;77.72
76229;BME280;65021;53.174;18.160;2023-04-26T01:51:24;100527.11;;;2.89;77.37
76229;BME280;65021;53.174;18.160;2023-04-26T01:53:54;100526.44;;;2.95;77.27
76229;BME280;65021;53.174;18.160;2023-04-26T01:56:22;100522.79;;;3.00;77.20
76229;BME280;65021;53.174;18.160;2023-04-26T01:58:49;100527.13;;;3.06;77.17
76229;BME280;65021;53.174;18.160;2023-04-26T02:01:21;100526.52;;;3.11;77.17
76229;BME280;65021;53.174;18.160;2023-04-26T02:03:48;100531.86;;;3.16;77.17
76229;BME280;65021;53.174;18.160;2023-04-26T02:06:14;100530.37;;;3.21;77.23
76229;BME280;65021;53.174;18.160;2023-04-26T02:08:41;100533.73;;;3.26;77.12
76229;BME280;65021;53.174;18.160;2023-04-26T02:11:08;100531.80;;;3.30;77.06
76229;BME280;65021;53.174;18.160;2023-04-26T02:13:35;100530.20;;;3.34;76.94
76229;BME280;65021;53.174;18.160;2023-04-26T02:16:02;100534.19;;;3.35;76.86
76229;BME280;65021;53.174;18.160;2023-04-26T02:18:29;100532.40;;;3.35;76.80
76229;BME280;65021;53.174;18.160;2023-04-26T02:20:55;100529.83;;;3.34;76.68
76229;BME280;65021;53.174;18.160;2023-04-26T02:23:31;100529.27;;;3.31;76.54
76229;BME280;65021;53.174;18.160;2023-04-26T02:25:58;100528.03;;;3.28;76.59
76229;BME280;65021;53.174;18.160;2023-04-26T02:28:24;100529.48;;;3.25;76.70
76229;BME280;65021;53.174;18.160;2023-04-26T02:30:51;100530.21;;;3.24;76.52
76229;BME280;65021;53.174;18.160;2023-04-26T02:33:17;100528.05;;;3.24;76.43
76229;BME280;65021;53.174;18.160;2023-04-26T02:35:44;100527.20;;;3.22;76.66
76229;BME280;65021;53.174;18.160;2023-04-26T02:38:11;100525.95;;;3.19;76.55
76229;BME280;65021;53.174;18.160;2023-04-26T02:40:37;100524.55;;;3.16;76.72
76229;BME280;65021;53.174;18.160;2023-04-26T02:43:04;100522.13;;;3.12;76.56
76229;BME280;65021;53.174;18.160;2023-04-26T02:45:30;100523.71;;;3.09;76.73
76229;BME280;65021;53.174;18.160;2023-04-26T02:47:57;100525.52;;;3.07;76.68
76229;BME280;65021;53.174;18.160;2023-04-26T02:50:23;100524.84;;;3.05;76.76
76229;BME280;65021;53.174;18.160;2023-04-26T02:52:50;100523.59;;;3.06;76.65
76229;BME280;65021;53.174;18.160;2023-04-26T02:55:17;100523.97;;;3.07;76.53
76229;BME280;65021;53.174;18.160;2023-04-26T02:57:43;100522.80;;;3.04;76.53
76229;BME280;65021;53.174;18.160;2023-04-26T03:00:12;100524.60;;;3.02;76.67
76229;BME280;65021;53.174;18.160;2023-04-26T03:02:39;100520.83;;;2.97;76.61
76229;BME280;65021;53.174;18.160;2023-04-26T03:05:06;100522.75;;;2.92;76.61
76229;BME280;65021;53.174;18.160;2023-04-26T03:07:33;100520.66;;;2.89;76.53
76229;BME280;65021;53.174;18.160;2023-04-26T03:09:59;100521.85;;;2.84;76.73
76229;BME280;65021;53.174;18.160;2023-04-26T03:12:27;100521.63;;;2.80;76.82
76229;BME280;65021;53.174;18.160;2023-04-26T03:14:53;100522.52;;;2.77;76.72
76229;BME280;65021;53.174;18.160;2023-04-26T03:17:20;100527.27;;;2.72;76.87
76229;BME280;65021;53.174;18.160;2023-04-26T03:19:47;100526.02;;;2.68;76.92
76229;BME280;65021;53.174;18.160;2023-04-26T03:22:13;100526.84;;;2.64;77.03
76229;BME280;65021;53.174;18.160;2023-04-26T03:24:42;100530.87;;;2.61;76.90
76229;BME280;65021;53.174;18.160;2023-04-26T03:27:09;100533.17;;;2.59;77.42
76229;BME280;65021;53.174;18.160;2023-04-26T03:29:35;100534.94;;;2.57;77.24
76229;BME280;65021;53.174;18.160;2023-04-26T03:32:03;100537.16;;;2.55;77.33
76229;BME280;65021;53.174;18.160;2023-04-26T03:34:29;100538.28;;;2.54;77.24
76229;BME280;65021;53.174;18.160;2023-04-26T03:37:03;100540.61;;;2.53;77.55
76229;BME280;65021;53.174;18.160;2023-04-26T03:39:30;100540.48;;;2.54;77.40
76229;BME280;65021;53.174;18.160;2023-04-26T03:41:57;100544.95;;;2.57;77.57
76229;BME280;65021;53.174;18.160;2023-04-26T03:44:24;100547.30;;;2.63;77.52
76229;BME280;65021;53.174;18.160;2023-04-26T03:46:53;100554.92;;;2.71;77.37
76229;BME280;65021;53.174;18.160;2023-04-26T03:49:19;100558.44;;;2.79;77.52
76229;BME280;65021;53.174;18.160;2023-04-26T03:51:55;100556.88;;;2.88;77.68
76229;BME280;65021;53.174;18.160;2023-04-26T03:54:25;100559.86;;;2.99;77.70
76229;BME280;65021;53.174;18.160;2023-04-26T03:56:52;100560.77;;;3.11;77.44
76229;BME280;65021;53.174;18.160;2023-04-26T03:59:18;100559.13;;;3.22;77.59
76229;BME280;65021;53.174;18.160;2023-04-26T04:01:45;100560.98;;;3.36;77.50
76229;BME280;65021;53.174;18.160;2023-04-26T04:04:21;100565.19;;;3.52;77.32
76229;BME280;65021;53.174;18.160;2023-04-26T04:06:47;100564.44;;;3.67;77.09
76229;BME280;65021;53.174;18.160;2023-04-26T04:09:14;100562.23;;;3.83;76.97
76229;BME280;65021;53.174;18.160;2023-04-26T04:11:41;100563.14;;;4.01;76.82
76229;BME280;65021;53.174;18.160;2023-04-26T04:14:10;100553.71;;;4.17;76.57
76229;BME280;65021;53.174;18.160;2023-04-26T04:16:39;100556.44;;;4.33;76.37
76229;BME280;65021;53.174;18.160;2023-04-26T04:19:06;100554.48;;;4.48;75.87
76229;BME280;65021;53.174;18.160;2023-04-26T04:21:34;100553.38;;;4.64;75.88
76229;BME280;65021;53.174;18.160;2023-04-26T04:24:04;100556.71;;;4.80;75.76
76229;BME280;65021;53.174;18.160;2023-04-26T04:26:31;100552.58;;;4.93;75.58
76229;BME280;65021;53.174;18.160;2023-04-26T04:28:57;100559.40;;;5.07;75.41
76229;BME280;65021;53.174;18.160;2023-04-26T04:31:36;100560.77;;;5.22;75.35
76229;BME280;65021;53.174;18.160;2023-04-26T04:34:05;100563.19;;;5.33;74.40
76229;BME280;65021;53.174;18.160;2023-04-26T04:36:40;100563.04;;;5.42;73.97
76229;BME280;65021;53.174;18.160;2023-04-26T04:39:07;100565.83;;;5.53;74.34
76229;BME280;65021;53.174;18.160;2023-04-26T04:41:38;100570.44;;;5.67;74.09
76229;BME280;65021;53.174;18.160;2023-04-26T04:44:16;100572.95;;;5.81;73.93
76229;BME280;65021;53.174;18.160;2023-04-26T04:46:46;100573.45;;;5.88;73.16
76229;BME280;65021;53.174;18.160;2023-04-26T04:49:12;100577.13;;;5.99;73.37
76229;BME280;65021;53.174;18.160;2023-04-26T04:51:40;100577.25;;;6.14;73.60
76229;BME280;65021;53.174;18.160;2023-04-26T04:54:17;100573.63;;;6.28;72.69
76229;BME280;65021;53.174;18.160;2023-04-26T04:56:46;100578.80;;;6.41;73.06
76229;BME280;65021;53.174;18.160;2023-04-26T04:59:13;100578.50;;;6.53;72.50
76229;BME280;65021;53.174;18.160;2023-04-26T05:01:42;100579.83;;;6.56;70.75
76229;BME280;65021;53.174;18.160;2023-04-26T05:04:11;100580.05;;;6.64;71.75
76229;BME280;65021;53.174;18.160;2023-04-26T05:06:37;100582.21;;;6.80;70.63
76229;BME280;65021;53.174;18.160;2023-04-26T05:09:04;100583.05;;;6.78;69.02
76229;BME280;65021;53.174;18.160;2023-04-26T05:11:31;100585.06;;;6.74;68.61
76229;BME280;65021;53.174;18.160;2023-04-26T05:14:09;100591.13;;;6.80;68.54
76229;BME280;65021;53.174;18.160;2023-04-26T05:16:36;100588.72;;;7.10;69.49
76229;BME280;65021;53.174;18.160;2023-04-26T05:19:03;100594.89;;;7.32;65.62
76229;BME280;65021;53.174;18.160;2023-04-26T05:21:30;100593.50;;;7.48;66.35
76229;BME280;65021;53.174;18.160;2023-04-26T05:23:57;100593.98;;;7.60;67.09
76229;BME280;65021;53.174;18.160;2023-04-26T05:26:24;100593.88;;;7.69;65.92
76229;BME280;65021;53.174;18.160;2023-04-26T05:28:50;100599.04;;;7.62;66.00
76229;BME280;65021;53.174;18.160;2023-04-26T05:31:17;100600.54;;;7.43;66.62
76229;BME280;65021;53.174;18.160;2023-04-26T05:33:44;100602.14;;;7.41;66.42
76229;BME280;65021;53.174;18.160;2023-04-26T05:36:13;100606.27;;;7.44;65.39
76229;BME280;65021;53.174;18.160;2023-04-26T05:38:40;100602.94;;;7.60;67.47
76229;BME280;65021;53.174;18.160;2023-04-26T05:41:06;100608.21;;;7.66;64.47
76229;BME280;65021;53.174;18.160;2023-04-26T05:43:33;100603.23;;;7.67;63.86
76229;BME280;65021;53.174;18.160;2023-04-26T05:45:59;100605.02;;;7.77;63.38
76229;BME280;65021;53.174;18.160;2023-04-26T05:48:27;100607.71;;;7.76;65.23
76229;BME280;65021;53.174;18.160;2023-04-26T05:50:55;100609.08;;;7.69;65.41
76229;BME280;65021;53.174;18.160;2023-04-26T05:53:21;100606.18;;;7.79;65.70
76229;BME280;65021;53.174;18.160;2023-04-26T05:55:48;100607.90;;;7.81;65.05
76229;BME280;65021;53.174;18.160;2023-04-26T05:58:15;100609.16;;;7.82;64.31
76229;BME280;65021;53.174;18.160;2023-04-26T06:00:42;100611.73;;;7.81;64.20
76229;BME280;65021;53.174;18.160;2023-04-26T06:03:09;100610.15;;;7.84;64.65
76229;BME280;65021;53.174;18.160;2023-04-26T06:05:36;100617.85;;;7.95;64.82
76229;BME280;65021;53.174;18.160;2023-04-26T06:08:04;100618.52;;;8.13;64.84
76229;BME280;65021;53.174;18.160;2023-04-26T06:10:30;100619.39;;;8.31;64.54
76229;BME280;65021;53.174;18.160;2023-04-26T06:12:57;100621.29;;;8.40;63.17
76229;BME280;65021;53.174;18.160;2023-04-26T06:15:24;100619.40;;;8.34;61.76
76229;BME280;65021;53.174;18.160;2023-04-26T06:17:50;100619.78;;;8.42;63.44
76229;BME280;65021;53.174;18.160;2023-04-26T06:20:17;100617.69;;;8.59;63.29
76229;BME280;65021;53.174;18.160;2023-04-26T06:22:43;100609.63;;;8.70;62.97
76229;BME280;65021;53.174;18.160;2023-04-26T06:25:11;100607.60;;;8.89;62.69
76229;BME280;65021;53.174;18.160;2023-04-26T06:27:38;100607.47;;;8.90;61.14
76229;BME280;65021;53.174;18.160;2023-04-26T06:30:08;100607.19;;;9.19;62.45
76229;BME280;65021;53.174;18.160;2023-04-26T06:32:34;100605.62;;;9.42;60.07
76229;BME280;65021;53.174;18.160;2023-04-26T06:35:01;100605.77;;;9.39;58.47
76229;BME280;65021;53.174;18.160;2023-04-26T06:37:28;100602.81;;;9.68;58.89
76229;BME280;65021;53.174;18.160;2023-04-26T06:39:55;100603.49;;;10.16;58.05
76229;BME280;65021;53.174;18.160;2023-04-26T06:42:21;100596.80;;;10.76;59.81
76229;BME280;65021;53.174;18.160;2023-04-26T06:44:48;100601.13;;;11.15;55.30
76229;BME280;65021;53.174;18.160;2023-04-26T06:47:14;100601.36;;;11.42;54.02
76229;BME280;65021;53.174;18.160;2023-04-26T06:49:41;100599.55;;;11.54;54.49
76229;BME280;65021;53.174;18.160;2023-04-26T06:52:07;100596.17;;;11.77;54.08
76229;BME280;65021;53.174;18.160;2023-04-26T06:54:34;100593.23;;;11.48;53.62
76229;BME280;65021;53.174;18.160;2023-04-26T06:57:03;100597.39;;;11.01;53.38
76229;BME280;65021;53.174;18.160;2023-04-26T06:59:32;100601.70;;;10.46;52.12
76229;BME280;65021;53.174;18.160;2023-04-26T07:01:59;100598.20;;;10.17;53.21
76229;BME280;65021;53.174;18.160;2023-04-26T07:04:27;100602.41;;;10.09;54.36
76229;BME280;65021;53.174;18.160;2023-04-26T07:06:54;100605.58;;;9.93;52.46
76229;BME280;65021;53.174;18.160;2023-04-26T07:09:22;100605.34;;;9.49;51.38
76229;BME280;65021;53.174;18.160;2023-04-26T07:11:48;100609.73;;;9.52;54.02
76229;BME280;65021;53.174;18.160;2023-04-26T07:14:15;100609.48;;;9.66;54.31
76229;BME280;65021;53.174;18.160;2023-04-26T07:16:42;100611.95;;;9.85;55.82
76229;BME280;65021;53.174;18.160;2023-04-26T07:19:09;100608.90;;;10.06;54.27
76229;BME280;65021;53.174;18.160;2023-04-26T07:21:36;100605.33;;;10.08;53.05
76229;BME280;65021;53.174;18.160;2023-04-26T07:24:03;100606.98;;;9.92;53.42
76229;BME280;65021;53.174;18.160;2023-04-26T07:26:30;100609.25;;;9.94;53.28
76229;BME280;65021;53.174;18.160;2023-04-26T07:28:57;100607.12;;;9.85;51.85
76229;BME280;65021;53.174;18.160;2023-04-26T07:31:25;100607.02;;;9.65;51.83
76229;BME280;65021;53.174;18.160;2023-04-26T07:33:52;100607.46;;;9.77;50.83
76229;BME280;65021;53.174;18.160;2023-04-26T07:36:18;100606.49;;;9.64;49.28
76229;BME280;65021;53.174;18.160;2023-04-26T07:38:45;100609.11;;;9.77;51.25
76229;BME280;65021;53.174;18.160;2023-04-26T07:41:12;100606.23;;;9.85;50.73
76229;BME280;65021;53.174;18.160;2023-04-26T07:43:39;100608.05;;;10.04;50.83
76229;BME280;65021;53.174;18.160;2023-04-26T07:46:06;100607.79;;;10.30;52.57
76229;BME280;65021;53.174;18.160;2023-04-26T07:48:33;100614.66;;;10.77;50.19
76229;BME280;65021;53.174;18.160;2023-04-26T07:51:09;100611.89;;;11.09;49.48
76229;BME280;65021;53.174;18.160;2023-04-26T07:53:37;100614.64;;;11.35;51.44
76229;BME280;65021;53.174;18.160;2023-04-26T07:56:04;100614.77;;;11.56;50.44
76229;BME280;65021;53.174;18.160;2023-04-26T07:58:39;100614.03;;;11.50;49.54
76229;BME280;65021;53.174;18.160;2023-04-26T08:01:05;100618.20;;;10.88;48.27
76229;BME280;65021;53.174;18.160;2023-04-26T08:03:32;100623.87;;;10.43;48.86
76229;BME280;65021;53.174;18.160;2023-04-26T08:05:59;100629.98;;;9.97;49.22
76229;BME280;65021;53.174;18.160;2023-04-26T08:08:27;100631.20;;;9.67;50.36
76229;BME280;65021;53.174;18.160;2023-04-26T08:10:54;100640.10;;;9.48;51.08
76229;BME280;65021;53.174;18.160;2023-04-26T08:13:21;100640.27;;;9.67;51.21
76229;BME280;65021;53.174;18.160;2023-04-26T08:15:48;100641.95;;;9.94;49.57
76229;BME280;65021;53.174;18.160;2023-04-26T08:18:21;100641.58;;;10.12;50.40
76229;BME280;65021;53.174;18.160;2023-04-26T08:20:48;100641.86;;;10.32;49.33
76229;BME280;65021;53.174;18.160;2023-04-26T08:23:15;100644.67;;;10.01;48.16
76229;BME280;65021;53.174;18.160;2023-04-26T08:25:43;100648.58;;;9.92;48.98
76229;BME280;65021;53.174;18.160;2023-04-26T08:28:10;100651.64;;;9.65;47.42
76229;BME280;65021;53.174;18.160;2023-04-26T08:30:39;100649.46;;;9.87;48.46
76229;BME280;65021;53.174;18.160;2023-04-26T08:33:07;100648.06;;;10.22;48.50
76229;BME280;65021;53.174;18.160;2023-04-26T08:35:34;100647.64;;;10.15;48.23
76229;BME280;65021;53.174;18.160;2023-04-26T08:38:01;100651.67;;;10.02;49.75
76229;BME280;65021;53.174;18.160;2023-04-26T08:40:28;100654.61;;;10.11;49.92
76229;BME280;65021;53.174;18.160;2023-04-26T08:42:55;100655.02;;;10.27;50.00
76229;BME280;65021;53.174;18.160;2023-04-26T08:45:21;100655.38;;;10.39;49.87
76229;BME280;65021;53.174;18.160;2023-04-26T08:47:50;100654.67;;;10.19;49.44
76229;BME280;65021;53.174;18.160;2023-04-26T08:50:20;100660.61;;;9.99;50.48
76229;BME280;65021;53.174;18.160;2023-04-26T08:52:49;100665.39;;;10.12;50.65
76229;BME280;65021;53.174;18.160;2023-04-26T08:55:18;100666.31;;;10.11;48.16
76229;BME280;65021;53.174;18.160;2023-04-26T08:57:49;100668.07;;;9.79;49.09
76229;BME280;65021;53.174;18.160;2023-04-26T09:00:17;100671.27;;;9.89;50.18
76229;BME280;65021;53.174;18.160;2023-04-26T09:02:51;100672.18;;;10.15;50.66
76229;BME280;65021;53.174;18.160;2023-04-26T09:05:19;100678.77;;;10.23;48.60
76229;BME280;65021;53.174;18.160;2023-04-26T09:07:49;100684.52;;;10.16;48.72
76229;BME280;65021;53.174;18.160;2023-04-26T09:10:20;100684.55;;;10.03;48.73
76229;BME280;65021;53.174;18.160;2023-04-26T09:12:54;100677.38;;;10.28;48.87
76229;BME280;65021;53.174;18.160;2023-04-26T09:15:25;100685.80;;;10.40;48.02
76229;BME280;65021;53.174;18.160;2023-04-26T09:17:53;100684.02;;;10.43;48.51
76229;BME280;65021;53.174;18.160;2023-04-26T09:20:28;100687.06;;;10.60;49.04
76229;BME280;65021;53.174;18.160;2023-04-26T09:23:06;100690.91;;;10.69;49.00
76229;BME280;65021;53.174;18.160;2023-04-26T09:25:33;100701.54;;;10.53;46.84
76229;BME280;65021;53.174;18.160;2023-04-26T09:28:02;100703.80;;;10.32;47.20
76229;BME280;65021;53.174;18.160;2023-04-26T09:30:30;100703.98;;;10.41;48.23
76229;BME280;65021;53.174;18.160;2023-04-26T09:33:03;100706.41;;;10.35;46.89
76229;BME280;65021;53.174;18.160;2023-04-26T09:38:06;100709.73;;;10.21;46.67
76229;BME280;65021;53.174;18.160;2023-04-26T09:43:06;100710.97;;;10.51;48.63
76229;BME280;65021;53.174;18.160;2023-04-26T09:46:00;100705.80;;;10.63;47.21
76229;BME280;65021;53.174;18.160;2023-04-26T09:48:31;100712.27;;;10.53;46.02
76229;BME280;65021;53.174;18.160;2023-04-26T09:53:39;100704.61;;;11.09;47.35
76229;BME280;65021;53.174;18.160;2023-04-26T09:56:14;100705.41;;;11.13;45.95
76229;BME280;65021;53.174;18.160;2023-04-26T09:58:55;100701.67;;;11.22;46.23
76229;BME280;65021;53.174;18.160;2023-04-26T10:01:31;100701.10;;;11.48;46.11
76229;BME280;65021;53.174;18.160;2023-04-26T10:04:01;100700.83;;;11.58;45.79
76229;BME280;65021;53.174;18.160;2023-04-26T10:06:30;100703.58;;;11.75;46.49
76229;BME280;65021;53.174;18.160;2023-04-26T10:08:58;100693.59;;;11.88;46.28
76229;BME280;65021;53.174;18.160;2023-04-26T10:11:27;100693.22;;;11.91;45.59
76229;BME280;65021;53.174;18.160;2023-04-26T10:13:54;100699.91;;;11.81;44.78
76229;BME280;65021;53.174;18.160;2023-04-26T10:16:24;100698.67;;;11.46;44.78
76229;BME280;65021;53.174;18.160;2023-04-26T10:18:51;100705.80;;;11.26;46.08
76229;BME280;65021;53.174;18.160;2023-04-26T10:21:21;100701.89;;;11.28;46.98
76229;BME280;65021;53.174;18.160;2023-04-26T10:23:50;100702.20;;;11.34;46.86
76229;BME280;65021;53.174;18.160;2023-04-26T10:26:49;100708.45;;;11.21;45.24
76229;BME280;65021;53.174;18.160;2023-04-26T10:29:20;100706.21;;;11.07;45.20
76229;BME280;65021;53.174;18.160;2023-04-26T10:34:33;100705.95;;;10.79;45.29
76229;BME280;65021;53.174;18.160;2023-04-26T10:37:14;100717.63;;;10.67;45.42
76229;BME280;65021;53.174;18.160;2023-04-26T10:39:42;100716.88;;;10.58;45.29
76229;BME280;65021;53.174;18.160;2023-04-26T10:42:35;100716.73;;;10.30;45.05
76229;BME280;65021;53.174;18.160;2023-04-26T10:45:24;100728.56;;;10.37;45.89
76229;BME280;65021;53.174;18.160;2023-04-26T10:56:10;100735.73;;;11.38;46.04
76229;BME280;65021;53.174;18.160;2023-04-26T10:58:40;100732.45;;;11.22;45.01
76229;BME280;65021;53.174;18.160;2023-04-26T11:01:08;100734.81;;;10.85;44.40
76229;BME280;65021;53.174;18.160;2023-04-26T11:03:43;100741.48;;;10.60;45.16
76229;BME280;65021;53.174;18.160;2023-04-26T11:06:46;100747.49;;;10.17;44.40
76229;BME280;65021;53.174;18.160;2023-04-26T11:09:32;100752.93;;;9.98;44.90
76229;BME280;65021;53.174;18.160;2023-04-26T11:11:59;100758.91;;;10.01;45.94
76229;BME280;65021;53.174;18.160;2023-04-26T11:14:27;100761.25;;;10.11;45.91
76229;BME280;65021;53.174;18.160;2023-04-26T11:16:53;100762.64;;;10.15;45.02
76229;BME280;65021;53.174;18.160;2023-04-26T11:19:20;100764.94;;;10.33;45.70
76229;BME280;65021;53.174;18.160;2023-04-26T11:21:47;100766.01;;;10.57;44.51
76229;BME280;65021;53.174;18.160;2023-04-26T11:24:14;100767.15;;;10.86;45.46
76229;BME280;65021;53.174;18.160;2023-04-26T11:26:41;100764.35;;;11.02;44.35
76229;BME280;65021;53.174;18.160;2023-04-26T11:29:07;100763.23;;;10.99;44.97
76229;BME280;65021;53.174;18.160;2023-04-26T11:31:35;100759.20;;;10.89;44.53
76229;BME280;65021;53.174;18.160;2023-04-26T11:34:05;100760.81;;;10.78;44.45
76229;BME280;65021;53.174;18.160;2023-04-26T11:36:32;100756.76;;;10.83;44.86
76229;BME280;65021;53.174;18.160;2023-04-26T11:39:04;100753.98;;;10.95;44.00
76229;BME280;65021;53.174;18.160;2023-04-26T11:41:31;100754.92;;;11.19;44.27
76229;BME280;65021;53.174;18.160;2023-04-26T11:43:58;100752.36;;;11.40;44.70
76229;BME280;65021;53.174;18.160;2023-04-26T11:46:25;100754.02;;;11.59;42.46
76229;BME280;65021;53.174;18.160;2023-04-26T11:48:52;100756.58;;;11.80;42.55
76229;BME280;65021;53.174;18.160;2023-04-26T11:51:18;100759.64;;;12.00;40.82
76229;BME280;65021;53.174;18.160;2023-04-26T11:53:46;100762.33;;;11.86;39.26
76229;BME280;65021;53.174;18.160;2023-04-26T11:56:17;100757.02;;;11.85;39.49
76229;BME280;65021;53.174;18.160;2023-04-26T11:58:49;100758.02;;;11.68;38.81
76229;BME280;65021;53.174;18.160;2023-04-26T12:01:26;100759.91;;;11.43;38.78
76229;BME280;65021;53.174;18.160;2023-04-26T12:03:55;100762.98;;;11.30;40.67
76229;BME280;65021;53.174;18.160;2023-04-26T12:06:41;100769.40;;;11.23;41.69
76229;BME280;65021;53.174;18.160;2023-04-26T12:09:09;100775.98;;;11.23;41.92
76229;BME280;65021;53.174;18.160;2023-04-26T12:11:38;100774.33;;;11.30;41.86
76229;BME280;65021;53.174;18.160;2023-04-26T12:14:05;100774.36;;;11.38;41.73
76229;BME280;65021;53.174;18.160;2023-04-26T12:16:35;100775.84;;;11.43;42.09
76229;BME280;65021;53.174;18.160;2023-04-26T12:19:05;100775.30;;;11.60;41.52
76229;BME280;65021;53.174;18.160;2023-04-26T12:21:40;100774.98;;;11.67;40.36
76229;BME280;65021;53.174;18.160;2023-04-26T12:24:28;100783.04;;;11.65;39.24
76229;BME280;65021;53.174;18.160;2023-04-26T12:26:59;100774.61;;;11.91;39.95
76229;BME280;65021;53.174;18.160;2023-04-26T12:29:26;100769.11;;;12.26;39.35
76229;BME280;65021;53.174;18.160;2023-04-26T12:31:56;100768.36;;;12.06;37.97
76229;BME280;65021;53.174;18.160;2023-04-26T12:34:23;100767.68;;;11.60;38.30
76229;BME280;65021;53.174;18.160;2023-04-26T12:36:49;100771.10;;;11.52;38.13
76229;BME280;65021;53.174;18.160;2023-04-26T12:39:16;100766.95;;;11.28;38.57
76229;BME280;65021;53.174;18.160;2023-04-26T12:41:43;100774.50;;;11.04;38.89
76229;BME280;65021;53.174;18.160;2023-04-26T12:44:11;100781.67;;;10.89;39.97
76229;BME280;65021;53.174;18.160;2023-04-26T12:46:38;100785.60;;;10.63;39.32
76229;BME280;65021;53.174;18.160;2023-04-26T12:49:07;100789.56;;;10.39;39.31
76229;BME280;65021;53.174;18.160;2023-04-26T12:51:33;100797.54;;;10.23;39.86
76229;BME280;65021;53.174;18.160;2023-04-26T12:54:00;100802.07;;;10.36;40.64
76229;BME280;65021;53.174;18.160;2023-04-26T12:56:28;100799.11;;;10.56;41.25
76229;BME280;65021;53.174;18.160;2023-04-26T12:58:55;100792.73;;;10.69;40.55
76229;BME280;65021;53.174;18.160;2023-04-26T13:01:22;100787.90;;;10.65;40.62
76229;BME280;65021;53.174;18.160;2023-04-26T13:03:51;100798.18;;;10.46;39.84
76229;BME280;65021;53.174;18.160;2023-04-26T13:06:19;100801.13;;;10.36;39.91
76229;BME280;65021;53.174;18.160;2023-04-26T13:08:46;100795.95;;;10.40;40.32
76229;BME280;65021;53.174;18.160;2023-04-26T13:11:13;100796.31;;;10.66;40.36